sensor_id;sensor_type;location;lat;lon;timestamp;P1;durP1;ratioP1;P2;durP2;ratioP2
53971;SDS011;40530;53.062;6.078;2022-08-23T00:00:20;8.98;;;3.42;;
53971;SDS011;40530;53.062;6.078;2022-08-23T00:02:46;9.10;;;3.70;;
53971;SDS011;40530;53.062;6.078;2022-08-23T00:05:13;10.05;;;3.85;;
53971;SDS011;40530;53.062;6.078;2022-08-23T00:07:40;9.50;;;3.53;;
53971;SDS011;40530;53.062;6.078;2022-08-23T00:10:08;9.70;;;3.40;;
53971;SDS011;40530;53.062;6.078;2022-08-23T00:12:37;9.55;;;3.55;;
53971;SDS011;40530;53.062;6.078;2022-08-23T00:15:04;12.40;;;4.50;;
53971;SDS011;40530;53.062;6.078;2022-08-23T00:17:31;14.40;;;4.45;;
53971;SDS011;40530;53.062;6.078;2022-08-23T00:19:57;12.82;;;4.30;;
53971;SDS011;40530;53.062;6.078;2022-08-23T00:22:23;9.40;;;3.80;;
53971;SDS011;40530;53.062;6.078;2022-08-23T00:24:49;9.20;;;3.95;;
53971;SDS011;40530;53.062;6.078;2022-08-23T00:27:16;9.77;;;4.32;;
53971;SDS011;40530;53.062;6.078;2022-08-23T00:29:48;9.88;;;4.75;;
53971;SDS011;40530;53.062;6.078;2022-08-23T00:34:40;10.32;;;3.70;;
53971;SDS011;40530;53.062;6.078;2022-08-23T00:37:07;11.98;;;4.40;;
53971;SDS011;40530;53.062;6.078;2022-08-23T00:39:33;9.80;;;5.00;;
53971;SDS011;40530;53.062;6.078;2022-08-23T00:42:03;15.85;;;4.45;;
53971;SDS011;40530;53.062;6.078;2022-08-23T00:44:53;10.57;;;4.93;;
53971;SDS011;40530;53.062;6.078;2022-08-23T00:47:39;9.73;;;4.25;;
53971;SDS011;40530;53.062;6.078;2022-08-23T00:50:08;8.38;;;4.72;;
53971;SDS011;40530;53.062;6.078;2022-08-23T00:52:39;10.40;;;4.78;;
53971;SDS011;40530;53.062;6.078;2022-08-23T00:55:06;10.25;;;4.05;;
53971;SDS011;40530;53.062;6.078;2022-08-23T00:57:33;13.05;;;4.45;;
53971;SDS011;40530;53.062;6.078;2022-08-23T01:00:01;10.27;;;4.53;;
53971;SDS011;40530;53.062;6.078;2022-08-23T01:02:27;10.73;;;4.95;;
53971;SDS011;40530;53.062;6.078;2022-08-23T01:04:54;13.43;;;4.63;;
53971;SDS011;40530;53.062;6.078;2022-08-23T01:12:47;15.63;;;9.95;;
53971;SDS011;40530;53.062;6.078;2022-08-23T01:15:18;22.90;;;7.70;;
53971;SDS011;40530;53.062;6.078;2022-08-23T01:18:02;12.05;;;4.93;;
53971;SDS011;40530;53.062;6.078;2022-08-23T01:20:30;16.08;;;8.45;;
53971;SDS011;40530;53.062;6.078;2022-08-23T01:22:58;14.18;;;8.10;;
53971;SDS011;40530;53.062;6.078;2022-08-23T01:25:28;11.05;;;6.50;;
53971;SDS011;40530;53.062;6.078;2022-08-23T01:27:55;16.48;;;7.95;;
53971;SDS011;40530;53.062;6.078;2022-08-23T01:30:23;19.48;;;12.27;;
53971;SDS011;40530;53.062;6.078;2022-08-23T01:32:52;12.25;;;6.00;;
53971;SDS011;40530;53.062;6.078;2022-08-23T01:35:19;10.70;;;4.35;;
53971;SDS011;40530;53.062;6.078;2022-08-23T01:37:45;12.05;;;5.45;;
53971;SDS011;40530;53.062;6.078;2022-08-23T01:40:11;11.00;;;4.90;;
53971;SDS011;40530;53.062;6.078;2022-08-23T01:42:38;10.07;;;4.80;;
53971;SDS011;40530;53.062;6.078;2022-08-23T01:45:11;12.05;;;4.95;;
53971;SDS011;40530;53.062;6.078;2022-08-23T01:47:38;9.00;;;4.80;;
53971;SDS011;40530;53.062;6.078;2022-08-23T01:50:05;9.57;;;4.70;;
53971;SDS011;40530;53.062;6.078;2022-08-23T01:52:31;13.60;;;4.93;;
53971;SDS011;40530;53.062;6.078;2022-08-23T01:54:58;9.27;;;5.07;;
53971;SDS011;40530;53.062;6.078;2022-08-23T01:57:25;9.57;;;4.80;;
53971;SDS011;40530;53.062;6.078;2022-08-23T01:59:52;11.18;;;5.57;;
53971;SDS011;40530;53.062;6.078;2022-08-23T02:02:19;8.88;;;4.65;;
53971;SDS011;40530;53.062;6.078;2022-08-23T02:04:45;12.63;;;5.43;;
53971;SDS011;40530;53.062;6.078;2022-08-23T02:07:11;12.65;;;5.68;;
53971;SDS011;40530;53.062;6.078;2022-08-23T02:09:37;15.95;;;6.35;;
53971;SDS011;40530;53.062;6.078;2022-08-23T02:12:04;15.18;;;10.40;;
53971;SDS011;40530;53.062;6.078;2022-08-23T02:14:30;13.13;;;7.65;;
53971;SDS011;40530;53.062;6.078;2022-08-23T02:16:56;9.10;;;5.53;;
53971;SDS011;40530;53.062;6.078;2022-08-23T02:19:23;11.27;;;6.10;;
53971;SDS011;40530;53.062;6.078;2022-08-23T02:21:49;12.85;;;5.13;;
53971;SDS011;40530;53.062;6.078;2022-08-23T02:24:20;12.13;;;6.13;;
53971;SDS011;40530;53.062;6.078;2022-08-23T02:26:48;8.40;;;4.90;;
53971;SDS011;40530;53.062;6.078;2022-08-23T02:29:15;9.82;;;4.88;;
53971;SDS011;40530;53.062;6.078;2022-08-23T02:31:41;8.55;;;5.10;;
53971;SDS011;40530;53.062;6.078;2022-08-23T02:34:11;9.35;;;5.35;;
53971;SDS011;40530;53.062;6.078;2022-08-23T02:36:37;12.13;;;5.40;;
53971;SDS011;40530;53.062;6.078;2022-08-23T02:39:04;10.85;;;5.38;;
53971;SDS011;40530;53.062;6.078;2022-08-23T02:41:31;8.85;;;5.32;;
53971;SDS011;40530;53.062;6.078;2022-08-23T02:43:57;7.43;;;4.50;;
53971;SDS011;40530;53.062;6.078;2022-08-23T02:46:23;8.20;;;4.93;;
53971;SDS011;40530;53.062;6.078;2022-08-23T02:48:49;10.18;;;5.03;;
53971;SDS011;40530;53.062;6.078;2022-08-23T02:51:15;7.85;;;4.70;;
53971;SDS011;40530;53.062;6.078;2022-08-23T02:53:42;10.88;;;4.82;;
53971;SDS011;40530;53.062;6.078;2022-08-23T02:56:09;7.65;;;4.40;;
53971;SDS011;40530;53.062;6.078;2022-08-23T02:58:35;10.52;;;5.35;;
53971;SDS011;40530;53.062;6.078;2022-08-23T03:01:01;7.10;;;4.00;;
53971;SDS011;40530;53.062;6.078;2022-08-23T03:03:27;11.35;;;5.25;;
53971;SDS011;40530;53.062;6.078;2022-08-23T03:05:53;6.45;;;4.68;;
53971;SDS011;40530;53.062;6.078;2022-08-23T03:08:20;12.73;;;5.40;;
53971;SDS011;40530;53.062;6.078;2022-08-23T03:10:47;7.53;;;4.45;;
53971;SDS011;40530;53.062;6.078;2022-08-23T03:13:13;8.73;;;4.43;;
53971;SDS011;40530;53.062;6.078;2022-08-23T03:15:39;12.90;;;4.95;;
53971;SDS011;40530;53.062;6.078;2022-08-23T03:18:05;11.02;;;5.53;;
53971;SDS011;40530;53.062;6.078;2022-08-23T03:20:32;11.15;;;5.32;;
53971;SDS011;40530;53.062;6.078;2022-08-23T03:22:59;11.65;;;5.38;;
53971;SDS011;40530;53.062;6.078;2022-08-23T03:25:26;13.88;;;6.00;;
53971;SDS011;40530;53.062;6.078;2022-08-23T03:27:53;10.52;;;5.72;;
53971;SDS011;40530;53.062;6.078;2022-08-23T03:30:19;11.10;;;5.55;;
53971;SDS011;40530;53.062;6.078;2022-08-23T03:32:45;11.48;;;5.32;;
53971;SDS011;40530;53.062;6.078;2022-08-23T03:35:11;14.52;;;5.85;;
53971;SDS011;40530;53.062;6.078;2022-08-23T03:37:37;12.68;;;5.40;;
53971;SDS011;40530;53.062;6.078;2022-08-23T03:40:04;11.15;;;6.55;;
53971;SDS011;40530;53.062;6.078;2022-08-23T03:42:31;11.50;;;6.22;;
53971;SDS011;40530;53.062;6.078;2022-08-23T03:44:57;11.02;;;5.43;;
53971;SDS011;40530;53.062;6.078;2022-08-23T03:47:24;10.15;;;5.65;;
53971;SDS011;40530;53.062;6.078;2022-08-23T03:49:50;11.73;;;6.03;;
53971;SDS011;40530;53.062;6.078;2022-08-23T03:52:16;12.60;;;5.88;;
53971;SDS011;40530;53.062;6.078;2022-08-23T03:54:42;7.45;;;5.43;;
53971;SDS011;40530;53.062;6.078;2022-08-23T03:57:08;11.38;;;5.50;;
53971;SDS011;40530;53.062;6.078;2022-08-23T03:59:36;11.68;;;6.05;;
53971;SDS011;40530;53.062;6.078;2022-08-23T04:02:02;6.60;;;5.20;;
53971;SDS011;40530;53.062;6.078;2022-08-23T04:04:29;12.65;;;6.00;;
53971;SDS011;40530;53.062;6.078;2022-08-23T04:06:54;13.40;;;5.15;;
53971;SDS011;40530;53.062;6.078;2022-08-23T04:09:21;11.23;;;5.65;;
53971;SDS011;40530;53.062;6.078;2022-08-23T04:11:47;7.88;;;4.97;;
53971;SDS011;40530;53.062;6.078;2022-08-23T04:14:13;11.25;;;5.40;;
53971;SDS011;40530;53.062;6.078;2022-08-23T04:16:39;11.82;;;6.03;;
53971;SDS011;40530;53.062;6.078;2022-08-23T04:19:06;11.32;;;5.50;;
53971;SDS011;40530;53.062;6.078;2022-08-23T04:21:33;9.80;;;5.82;;
53971;SDS011;40530;53.062;6.078;2022-08-23T04:24:01;9.60;;;5.75;;
53971;SDS011;40530;53.062;6.078;2022-08-23T04:26:27;10.57;;;5.65;;
53971;SDS011;40530;53.062;6.078;2022-08-23T04:28:53;8.27;;;5.97;;
53971;SDS011;40530;53.062;6.078;2022-08-23T04:31:19;9.93;;;6.78;;
53971;SDS011;40530;53.062;6.078;2022-08-23T04:33:46;11.27;;;7.57;;
53971;SDS011;40530;53.062;6.078;2022-08-23T04:36:13;10.82;;;6.80;;
53971;SDS011;40530;53.062;6.078;2022-08-23T04:38:39;12.45;;;7.07;;
53971;SDS011;40530;53.062;6.078;2022-08-23T04:41:05;12.30;;;6.90;;
53971;SDS011;40530;53.062;6.078;2022-08-23T04:43:50;11.02;;;7.05;;
53971;SDS011;40530;53.062;6.078;2022-08-23T04:46:16;13.40;;;7.97;;
53971;SDS011;40530;53.062;6.078;2022-08-23T04:48:43;13.07;;;7.05;;
53971;SDS011;40530;53.062;6.078;2022-08-23T04:51:09;14.25;;;8.88;;
53971;SDS011;40530;53.062;6.078;2022-08-23T04:53:35;10.45;;;7.60;;
53971;SDS011;40530;53.062;6.078;2022-08-23T04:56:02;20.35;;;9.45;;
53971;SDS011;40530;53.062;6.078;2022-08-23T04:58:29;15.95;;;9.68;;
53971;SDS011;40530;53.062;6.078;2022-08-23T05:00:56;14.45;;;8.93;;
53971;SDS011;40530;53.062;6.078;2022-08-23T05:03:22;14.95;;;10.82;;
53971;SDS011;40530;53.062;6.078;2022-08-23T05:05:49;10.13;;;6.50;;
53971;SDS011;40530;53.062;6.078;2022-08-23T05:08:16;11.18;;;6.80;;
53971;SDS011;40530;53.062;6.078;2022-08-23T05:10:42;11.93;;;6.65;;
53971;SDS011;40530;53.062;6.078;2022-08-23T05:13:08;10.20;;;6.53;;
53971;SDS011;40530;53.062;6.078;2022-08-23T05:15:34;12.43;;;6.40;;
53971;SDS011;40530;53.062;6.078;2022-08-23T05:18:00;8.77;;;6.90;;
53971;SDS011;40530;53.062;6.078;2022-08-23T05:20:27;18.88;;;6.97;;
53971;SDS011;40530;53.062;6.078;2022-08-23T05:22:53;15.48;;;7.18;;
53971;SDS011;40530;53.062;6.078;2022-08-23T05:25:19;16.23;;;8.43;;
53971;SDS011;40530;53.062;6.078;2022-08-23T05:27:45;13.73;;;7.07;;
53971;SDS011;40530;53.062;6.078;2022-08-23T05:30:11;14.35;;;8.88;;
53971;SDS011;40530;53.062;6.078;2022-08-23T05:32:38;18.02;;;8.45;;
53971;SDS011;40530;53.062;6.078;2022-08-23T05:35:04;13.88;;;8.70;;
53971;SDS011;40530;53.062;6.078;2022-08-23T05:37:30;15.32;;;9.40;;
53971;SDS011;40530;53.062;6.078;2022-08-23T05:39:56;12.20;;;8.48;;
53971;SDS011;40530;53.062;6.078;2022-08-23T05:42:22;13.55;;;8.82;;
53971;SDS011;40530;53.062;6.078;2022-08-23T05:44:48;15.45;;;8.68;;
53971;SDS011;40530;53.062;6.078;2022-08-23T05:47:15;15.93;;;8.63;;
53971;SDS011;40530;53.062;6.078;2022-08-23T05:49:41;13.05;;;8.43;;
53971;SDS011;40530;53.062;6.078;2022-08-23T05:52:09;17.27;;;8.50;;
53971;SDS011;40530;53.062;6.078;2022-08-23T05:54:36;13.85;;;9.02;;
53971;SDS011;40530;53.062;6.078;2022-08-23T05:57:02;13.48;;;8.73;;
53971;SDS011;40530;53.062;6.078;2022-08-23T05:59:28;13.50;;;9.18;;
53971;SDS011;40530;53.062;6.078;2022-08-23T06:01:54;13.52;;;8.77;;
53971;SDS011;40530;53.062;6.078;2022-08-23T06:04:21;24.58;;;16.70;;
53971;SDS011;40530;53.062;6.078;2022-08-23T06:06:48;10.13;;;8.15;;
53971;SDS011;40530;53.062;6.078;2022-08-23T06:09:14;19.08;;;11.88;;
53971;SDS011;40530;53.062;6.078;2022-08-23T06:11:42;15.27;;;9.63;;
53971;SDS011;40530;53.062;6.078;2022-08-23T06:14:08;13.73;;;8.55;;
53971;SDS011;40530;53.062;6.078;2022-08-23T06:16:35;12.98;;;8.80;;
53971;SDS011;40530;53.062;6.078;2022-08-23T06:19:03;13.75;;;8.07;;
53971;SDS011;40530;53.062;6.078;2022-08-23T06:21:30;14.27;;;8.60;;
53971;SDS011;40530;53.062;6.078;2022-08-23T06:23:56;13.43;;;9.05;;
53971;SDS011;40530;53.062;6.078;2022-08-23T06:26:24;12.82;;;8.95;;
53971;SDS011;40530;53.062;6.078;2022-08-23T06:28:51;17.80;;;8.90;;
53971;SDS011;40530;53.062;6.078;2022-08-23T06:31:19;16.27;;;8.80;;
53971;SDS011;40530;53.062;6.078;2022-08-23T06:34:05;12.18;;;8.02;;
53971;SDS011;40530;53.062;6.078;2022-08-23T06:36:31;13.25;;;8.27;;
53971;SDS011;40530;53.062;6.078;2022-08-23T06:38:57;11.52;;;7.85;;
53971;SDS011;40530;53.062;6.078;2022-08-23T06:41:23;12.68;;;8.00;;
53971;SDS011;40530;53.062;6.078;2022-08-23T06:43:49;14.77;;;8.13;;
53971;SDS011;40530;53.062;6.078;2022-08-23T06:46:19;9.93;;;6.80;;
53971;SDS011;40530;53.062;6.078;2022-08-23T06:48:46;12.18;;;7.10;;
53971;SDS011;40530;53.062;6.078;2022-08-23T06:51:14;11.27;;;7.32;;
53971;SDS011;40530;53.062;6.078;2022-08-23T06:53:43;14.88;;;7.18;;
53971;SDS011;40530;53.062;6.078;2022-08-23T06:56:10;13.13;;;7.43;;
53971;SDS011;40530;53.062;6.078;2022-08-23T06:58:36;10.30;;;7.40;;
53971;SDS011;40530;53.062;6.078;2022-08-23T07:01:09;12.68;;;6.70;;
53971;SDS011;40530;53.062;6.078;2022-08-23T07:03:35;9.52;;;6.05;;
53971;SDS011;40530;53.062;6.078;2022-08-23T07:06:01;10.73;;;6.40;;
53971;SDS011;40530;53.062;6.078;2022-08-23T07:08:27;9.55;;;5.55;;
53971;SDS011;40530;53.062;6.078;2022-08-23T07:10:56;8.23;;;5.78;;
53971;SDS011;40530;53.062;6.078;2022-08-23T07:13:22;10.55;;;5.95;;
53971;SDS011;40530;53.062;6.078;2022-08-23T07:15:48;8.57;;;5.00;;
53971;SDS011;40530;53.062;6.078;2022-08-23T07:18:14;10.00;;;5.40;;
53971;SDS011;40530;53.062;6.078;2022-08-23T07:20:40;14.00;;;5.65;;
53971;SDS011;40530;53.062;6.078;2022-08-23T07:23:06;10.43;;;5.28;;
53971;SDS011;40530;53.062;6.078;2022-08-23T07:25:31;8.48;;;5.50;;
53971;SDS011;40530;53.062;6.078;2022-08-23T07:27:57;11.85;;;5.47;;
53971;SDS011;40530;53.062;6.078;2022-08-23T07:30:25;8.70;;;5.43;;
53971;SDS011;40530;53.062;6.078;2022-08-23T07:32:51;9.00;;;4.85;;
53971;SDS011;40530;53.062;6.078;2022-08-23T07:35:17;6.88;;;4.10;;
53971;SDS011;40530;53.062;6.078;2022-08-23T07:37:43;10.85;;;5.03;;
53971;SDS011;40530;53.062;6.078;2022-08-23T07:40:09;15.38;;;5.00;;
53971;SDS011;40530;53.062;6.078;2022-08-23T07:42:35;10.30;;;4.07;;
53971;SDS011;40530;53.062;6.078;2022-08-23T07:45:01;11.27;;;5.32;;
53971;SDS011;40530;53.062;6.078;2022-08-23T07:47:27;10.00;;;4.40;;
53971;SDS011;40530;53.062;6.078;2022-08-23T07:49:54;7.95;;;4.40;;
53971;SDS011;40530;53.062;6.078;2022-08-23T07:52:20;13.23;;;4.05;;
53971;SDS011;40530;53.062;6.078;2022-08-23T07:54:46;7.47;;;3.78;;
53971;SDS011;40530;53.062;6.078;2022-08-23T07:57:12;7.07;;;3.55;;
53971;SDS011;40530;53.062;6.078;2022-08-23T07:59:38;8.05;;;3.33;;
53971;SDS011;40530;53.062;6.078;2022-08-23T08:02:04;8.80;;;3.67;;
53971;SDS011;40530;53.062;6.078;2022-08-23T08:04:30;15.07;;;3.50;;
53971;SDS011;40530;53.062;6.078;2022-08-23T08:06:56;7.07;;;3.58;;
53971;SDS011;40530;53.062;6.078;2022-08-23T08:09:24;8.07;;;4.13;;
53971;SDS011;40530;53.062;6.078;2022-08-23T08:11:50;6.60;;;3.80;;
53971;SDS011;40530;53.062;6.078;2022-08-23T08:14:16;8.98;;;3.58;;
53971;SDS011;40530;53.062;6.078;2022-08-23T08:16:43;8.50;;;3.72;;
53971;SDS011;40530;53.062;6.078;2022-08-23T08:19:10;7.32;;;3.22;;
53971;SDS011;40530;53.062;6.078;2022-08-23T08:21:39;7.10;;;3.05;;
53971;SDS011;40530;53.062;6.078;2022-08-23T08:24:05;6.65;;;3.15;;
53971;SDS011;40530;53.062;6.078;2022-08-23T08:26:32;5.20;;;2.70;;
53971;SDS011;40530;53.062;6.078;2022-08-23T08:28:58;7.07;;;3.25;;
53971;SDS011;40530;53.062;6.078;2022-08-23T08:31:24;11.40;;;3.97;;
53971;SDS011;40530;53.062;6.078;2022-08-23T08:33:51;4.03;;;2.88;;
53971;SDS011;40530;53.062;6.078;2022-08-23T08:39:02;8.10;;;3.08;;
53971;SDS011;40530;53.062;6.078;2022-08-23T08:41:34;5.55;;;2.92;;
53971;SDS011;40530;53.062;6.078;2022-08-23T08:46:46;6.38;;;2.78;;
53971;SDS011;40530;53.062;6.078;2022-08-23T08:49:16;6.20;;;2.40;;
53971;SDS011;40530;53.062;6.078;2022-08-23T08:52:07;5.00;;;2.42;;
53971;SDS011;40530;53.062;6.078;2022-08-23T08:54:49;7.43;;;2.70;;
53971;SDS011;40530;53.062;6.078;2022-08-23T08:57:19;10.18;;;2.90;;
53971;SDS011;40530;53.062;6.078;2022-08-23T08:59:59;11.40;;;3.13;;
53971;SDS011;40530;53.062;6.078;2022-08-23T09:02:30;11.55;;;3.10;;
53971;SDS011;40530;53.062;6.078;2022-08-23T09:04:58;9.75;;;3.50;;
53971;SDS011;40530;53.062;6.078;2022-08-23T09:07:36;8.88;;;3.22;;
53971;SDS011;40530;53.062;6.078;2022-08-23T09:18:48;4.88;;;3.28;;
53971;SDS011;40530;53.062;6.078;2022-08-23T09:21:14;7.88;;;3.53;;
53971;SDS011;40530;53.062;6.078;2022-08-23T09:23:43;7.45;;;3.65;;
53971;SDS011;40530;53.062;6.078;2022-08-23T09:28:41;13.10;;;2.60;;
53971;SDS011;40530;53.062;6.078;2022-08-23T09:31:09;4.60;;;2.60;;
53971;SDS011;40530;53.062;6.078;2022-08-23T09:33:40;6.20;;;3.28;;
53971;SDS011;40530;53.062;6.078;2022-08-23T09:36:25;6.97;;;3.10;;
53971;SDS011;40530;53.062;6.078;2022-08-23T09:38:59;11.23;;;3.85;;
53971;SDS011;40530;53.062;6.078;2022-08-23T09:41:27;11.68;;;3.13;;
53971;SDS011;40530;53.062;6.078;2022-08-23T09:43:56;6.60;;;2.83;;
53971;SDS011;40530;53.062;6.078;2022-08-23T09:46:26;16.65;;;2.90;;
53971;SDS011;40530;53.062;6.078;2022-08-23T09:48:53;7.60;;;2.72;;
53971;SDS011;40530;53.062;6.078;2022-08-23T09:54:05;8.20;;;3.15;;
53971;SDS011;40530;53.062;6.078;2022-08-23T09:56:37;7.45;;;2.60;;
53971;SDS011;40530;53.062;6.078;2022-08-23T09:59:18;8.88;;;2.67;;
53971;SDS011;40530;53.062;6.078;2022-08-23T10:01:46;6.72;;;3.15;;
53971;SDS011;40530;53.062;6.078;2022-08-23T10:04:15;6.45;;;2.60;;
53971;SDS011;40530;53.062;6.078;2022-08-23T10:06:43;7.55;;;2.72;;
53971;SDS011;40530;53.062;6.078;2022-08-23T10:09:21;5.15;;;2.42;;
53971;SDS011;40530;53.062;6.078;2022-08-23T10:11:47;5.78;;;2.78;;
53971;SDS011;40530;53.062;6.078;2022-08-23T10:14:14;8.55;;;3.25;;
53971;SDS011;40530;53.062;6.078;2022-08-23T10:22:10;7.95;;;2.30;;
53971;SDS011;40530;53.062;6.078;2022-08-23T10:35:45;7.65;;;2.30;;
53971;SDS011;40530;53.062;6.078;2022-08-23T10:44:14;5.82;;;2.83;;
53971;SDS011;40530;53.062;6.078;2022-08-23T10:46:48;6.28;;;2.45;;
53971;SDS011;40530;53.062;6.078;2022-08-23T10:49:34;6.15;;;2.40;;
53971;SDS011;40530;53.062;6.078;2022-08-23T10:52:03;5.28;;;1.98;;
53971;SDS011;40530;53.062;6.078;2022-08-23T10:54:40;4.85;;;2.10;;
53971;SDS011;40530;53.062;6.078;2022-08-23T10:57:25;5.35;;;1.80;;
53971;SDS011;40530;53.062;6.078;2022-08-23T10:59:56;5.15;;;1.77;;
53971;SDS011;40530;53.062;6.078;2022-08-23T11:05:03;3.17;;;1.42;;
53971;SDS011;40530;53.062;6.078;2022-08-23T11:10:07;6.68;;;1.90;;
53971;SDS011;40530;53.062;6.078;2022-08-23T11:12:35;6.22;;;1.85;;
53971;SDS011;40530;53.062;6.078;2022-08-23T11:17:56;3.63;;;1.60;;
53971;SDS011;40530;53.062;6.078;2022-08-23T11:23:16;6.03;;;1.55;;
53971;SDS011;40530;53.062;6.078;2022-08-23T11:26:01;5.88;;;1.75;;
53971;SDS011;40530;53.062;6.078;2022-08-23T11:41:19;7.22;;;2.20;;
53971;SDS011;40530;53.062;6.078;2022-08-23T11:43:49;7.68;;;1.83;;
53971;SDS011;40530;53.062;6.078;2022-08-23T11:54:44;6.03;;;1.63;;
53971;SDS011;40530;53.062;6.078;2022-08-23T12:00:07;5.20;;;2.00;;
53971;SDS011;40530;53.062;6.078;2022-08-23T12:18:39;10.40;;;2.03;;
53971;SDS011;40530;53.062;6.078;2022-08-23T12:23:57;10.55;;;2.30;;
53971;SDS011;40530;53.062;6.078;2022-08-23T12:29:08;5.60;;;2.30;;
53971;SDS011;40530;53.062;6.078;2022-08-23T12:31:52;7.38;;;2.20;;
53971;SDS011;40530;53.062;6.078;2022-08-23T12:37:16;5.68;;;1.70;;
53971;SDS011;40530;53.062;6.078;2022-08-23T12:40:00;12.02;;;2.15;;
53971;SDS011;40530;53.062;6.078;2022-08-23T12:42:28;5.88;;;2.20;;
53971;SDS011;40530;53.062;6.078;2022-08-23T12:45:19;7.40;;;2.38;;
53971;SDS011;40530;53.062;6.078;2022-08-23T12:47:56;6.93;;;1.98;;
53971;SDS011;40530;53.062;6.078;2022-08-23T12:50:39;3.25;;;1.50;;
53971;SDS011;40530;53.062;6.078;2022-08-23T12:53:14;3.75;;;1.55;;
53971;SDS011;40530;53.062;6.078;2022-08-23T12:55:47;4.88;;;1.65;;
53971;SDS011;40530;53.062;6.078;2022-08-23T12:58:15;9.10;;;1.60;;
53971;SDS011;40530;53.062;6.078;2022-08-23T13:00:53;5.75;;;1.80;;
53971;SDS011;40530;53.062;6.078;2022-08-23T13:03:27;5.40;;;1.83;;
53971;SDS011;40530;53.062;6.078;2022-08-23T13:06:00;5.57;;;2.45;;
53971;SDS011;40530;53.062;6.078;2022-08-23T13:08:33;6.22;;;1.75;;
53971;SDS011;40530;53.062;6.078;2022-08-23T13:11:04;2.90;;;1.65;;
53971;SDS011;40530;53.062;6.078;2022-08-23T13:13:32;5.30;;;2.05;;
53971;SDS011;40530;53.062;6.078;2022-08-23T13:15:59;9.93;;;2.20;;
53971;SDS011;40530;53.062;6.078;2022-08-23T13:18:30;9.80;;;1.83;;
53971;SDS011;40530;53.062;6.078;2022-08-23T13:21:17;4.53;;;2.10;;
53971;SDS011;40530;53.062;6.078;2022-08-23T13:23:43;4.65;;;1.77;;
53971;SDS011;40530;53.062;6.078;2022-08-23T13:29:02;12.02;;;2.60;;
53971;SDS011;40530;53.062;6.078;2022-08-23T13:31:46;5.13;;;1.83;;
53971;SDS011;40530;53.062;6.078;2022-08-23T13:34:39;5.15;;;1.70;;
53971;SDS011;40530;53.062;6.078;2022-08-23T13:39:45;4.13;;;1.77;;
53971;SDS011;40530;53.062;6.078;2022-08-23T13:45:10;7.80;;;1.98;;
53971;SDS011;40530;53.062;6.078;2022-08-23T13:47:42;4.38;;;1.83;;
53971;SDS011;40530;53.062;6.078;2022-08-23T13:50:22;5.88;;;2.00;;
53971;SDS011;40530;53.062;6.078;2022-08-23T13:52:50;9.30;;;2.38;;
53971;SDS011;40530;53.062;6.078;2022-08-23T13:55:16;7.30;;;2.03;;
53971;SDS011;40530;53.062;6.078;2022-08-23T13:57:41;5.50;;;2.17;;
53971;SDS011;40530;53.062;6.078;2022-08-23T14:00:07;8.00;;;2.00;;
53971;SDS011;40530;53.062;6.078;2022-08-23T14:02:34;7.47;;;2.30;;
53971;SDS011;40530;53.062;6.078;2022-08-23T14:05:01;7.50;;;2.22;;
53971;SDS011;40530;53.062;6.078;2022-08-23T14:07:28;5.22;;;2.00;;
53971;SDS011;40530;53.062;6.078;2022-08-23T14:09:53;5.55;;;2.10;;
53971;SDS011;40530;53.062;6.078;2022-08-23T14:12:21;8.13;;;2.03;;
53971;SDS011;40530;53.062;6.078;2022-08-23T14:14:51;4.50;;;1.77;;
53971;SDS011;40530;53.062;6.078;2022-08-23T14:17:17;6.63;;;1.83;;
53971;SDS011;40530;53.062;6.078;2022-08-23T14:19:44;6.03;;;1.75;;
53971;SDS011;40530;53.062;6.078;2022-08-23T14:22:11;4.70;;;2.40;;
53971;SDS011;40530;53.062;6.078;2022-08-23T14:24:38;7.97;;;2.33;;
53971;SDS011;40530;53.062;6.078;2022-08-23T14:27:04;6.13;;;1.95;;
53971;SDS011;40530;53.062;6.078;2022-08-23T14:29:31;9.15;;;2.28;;
53971;SDS011;40530;53.062;6.078;2022-08-23T14:31:57;7.47;;;2.47;;
53971;SDS011;40530;53.062;6.078;2022-08-23T14:34:24;8.23;;;2.13;;
53971;SDS011;40530;53.062;6.078;2022-08-23T14:36:50;9.65;;;1.80;;
53971;SDS011;40530;53.062;6.078;2022-08-23T14:39:18;6.95;;;2.08;;
53971;SDS011;40530;53.062;6.078;2022-08-23T14:41:44;5.82;;;2.00;;
53971;SDS011;40530;53.062;6.078;2022-08-23T14:44:10;8.75;;;2.42;;
53971;SDS011;40530;53.062;6.078;2022-08-23T14:46:38;4.95;;;2.38;;
53971;SDS011;40530;53.062;6.078;2022-08-23T14:49:04;9.80;;;2.38;;
53971;SDS011;40530;53.062;6.078;2022-08-23T14:51:31;7.72;;;2.00;;
53971;SDS011;40530;53.062;6.078;2022-08-23T14:53:58;4.13;;;2.60;;
53971;SDS011;40530;53.062;6.078;2022-08-23T14:56:24;5.95;;;2.42;;
53971;SDS011;40530;53.062;6.078;2022-08-23T14:58:51;11.02;;;2.10;;
53971;SDS011;40530;53.062;6.078;2022-08-23T15:01:17;6.57;;;2.33;;
53971;SDS011;40530;53.062;6.078;2022-08-23T15:03:44;8.23;;;2.30;;
53971;SDS011;40530;53.062;6.078;2022-08-23T15:06:11;5.00;;;2.20;;
53971;SDS011;40530;53.062;6.078;2022-08-23T15:08:40;9.88;;;3.00;;
53971;SDS011;40530;53.062;6.078;2022-08-23T15:11:06;10.98;;;2.85;;
53971;SDS011;40530;53.062;6.078;2022-08-23T15:13:33;6.65;;;2.85;;
53971;SDS011;40530;53.062;6.078;2022-08-23T15:16:00;9.07;;;2.38;;
53971;SDS011;40530;53.062;6.078;2022-08-23T15:18:26;6.65;;;2.42;;
53971;SDS011;40530;53.062;6.078;2022-08-23T15:20:52;6.75;;;2.25;;
53971;SDS011;40530;53.062;6.078;2022-08-23T15:23:18;8.00;;;2.80;;
53971;SDS011;40530;53.062;6.078;2022-08-23T15:25:45;6.70;;;2.50;;
53971;SDS011;40530;53.062;6.078;2022-08-23T15:28:13;11.38;;;2.45;;
53971;SDS011;40530;53.062;6.078;2022-08-23T15:30:40;14.38;;;2.88;;
53971;SDS011;40530;53.062;6.078;2022-08-23T15:33:06;6.50;;;2.35;;
53971;SDS011;40530;53.062;6.078;2022-08-23T15:35:46;5.63;;;2.33;;
53971;SDS011;40530;53.062;6.078;2022-08-23T15:38:14;8.90;;;2.50;;
53971;SDS011;40530;53.062;6.078;2022-08-23T15:40:40;7.95;;;2.03;;
53971;SDS011;40530;53.062;6.078;2022-08-23T15:43:07;8.35;;;2.38;;
53971;SDS011;40530;53.062;6.078;2022-08-23T15:45:33;5.68;;;1.80;;
53971;SDS011;40530;53.062;6.078;2022-08-23T15:47:59;7.80;;;2.55;;
53971;SDS011;40530;53.062;6.078;2022-08-23T15:50:28;16.02;;;2.63;;
53971;SDS011;40530;53.062;6.078;2022-08-23T15:52:55;3.75;;;2.30;;
53971;SDS011;40530;53.062;6.078;2022-08-23T15:55:22;5.25;;;2.10;;
53971;SDS011;40530;53.062;6.078;2022-08-23T15:57:49;8.10;;;3.03;;
53971;SDS011;40530;53.062;6.078;2022-08-23T16:00:16;5.50;;;2.30;;
53971;SDS011;40530;53.062;6.078;2022-08-23T16:02:42;10.30;;;2.70;;
53971;SDS011;40530;53.062;6.078;2022-08-23T16:05:09;8.13;;;2.72;;
53971;SDS011;40530;53.062;6.078;2022-08-23T16:07:35;6.13;;;2.70;;
53971;SDS011;40530;53.062;6.078;2022-08-23T16:10:03;8.82;;;2.53;;
53971;SDS011;40530;53.062;6.078;2022-08-23T16:12:30;5.43;;;2.08;;
53971;SDS011;40530;53.062;6.078;2022-08-23T16:14:57;6.95;;;2.28;;
53971;SDS011;40530;53.062;6.078;2022-08-23T16:17:23;6.97;;;2.42;;
53971;SDS011;40530;53.062;6.078;2022-08-23T16:19:49;9.48;;;2.95;;
53971;SDS011;40530;53.062;6.078;2022-08-23T16:22:15;6.35;;;2.03;;
53971;SDS011;40530;53.062;6.078;2022-08-23T16:24:41;5.43;;;2.40;;
53971;SDS011;40530;53.062;6.078;2022-08-23T16:27:07;5.50;;;2.10;;
53971;SDS011;40530;53.062;6.078;2022-08-23T16:29:34;6.85;;;2.10;;
53971;SDS011;40530;53.062;6.078;2022-08-23T16:32:03;3.90;;;1.80;;
53971;SDS011;40530;53.062;6.078;2022-08-23T16:34:30;10.05;;;3.83;;
53971;SDS011;40530;53.062;6.078;2022-08-23T16:36:57;11.68;;;3.65;;
53971;SDS011;40530;53.062;6.078;2022-08-23T16:39:24;10.55;;;4.00;;
53971;SDS011;40530;53.062;6.078;2022-08-23T16:41:50;11.50;;;3.80;;
53971;SDS011;40530;53.062;6.078;2022-08-23T16:44:16;10.27;;;3.67;;